sensor_id;sensor_type;location;lat;lon;timestamp;P1;durP1;ratioP1;P2;durP2;ratioP2
50880;SDS011;36858;47.832;-3.800;2023-02-28T07:11:42;7.37;;;3.67;;
50880;SDS011;36858;47.832;-3.800;2023-02-28T07:14:10;7.47;;;4.30;;
50880;SDS011;36858;47.832;-3.800;2023-02-28T07:16:37;6.00;;;3.80;;
50880;SDS011;36858;47.832;-3.800;2023-02-28T07:19:04;7.33;;;4.07;;
50880;SDS011;36858;47.832;-3.800;2023-02-28T07:21:30;13.10;;;4.77;;
50880;SDS011;36858;47.832;-3.800;2023-02-28T07:23:57;6.70;;;3.73;;
50880;SDS011;36858;47.832;-3.800;2023-02-28T07:26:24;7.57;;;4.10;;
50880;SDS011;36858;47.832;-3.800;2023-02-28T07:28:51;5.97;;;3.90;;
50880;SDS011;36858;47.832;-3.800;2023-02-28T07:31:19;6.47;;;3.53;;
50880;SDS011;36858;47.832;-3.800;2023-02-28T07:33:46;8.87;;;4.53;;
50880;SDS011;36858;47.832;-3.800;2023-02-28T07:36:14;6.03;;;3.90;;
50880;SDS011;36858;47.832;-3.800;2023-02-28T07:38:46;8.40;;;3.80;;
50880;SDS011;36858;47.832;-3.800;2023-02-28T07:41:15;11.80;;;4.60;;
50880;SDS011;36858;47.832;-3.800;2023-02-28T07:43:43;6.07;;;3.90;;
50880;SDS011;36858;47.832;-3.800;2023-02-28T07:46:12;6.57;;;3.73;;
50880;SDS011;36858;47.832;-3.800;2023-02-28T07:48:44;7.93;;;3.77;;
50880;SDS011;36858;47.832;-3.800;2023-02-28T07:51:11;8.87;;;4.27;;
50880;SDS011;36858;47.832;-3.800;2023-02-28T07:53:39;8.23;;;4.20;;
50880;SDS011;36858;47.832;-3.800;2023-02-28T07:56:06;8.63;;;4.67;;
50880;SDS011;36858;47.832;-3.800;2023-02-28T07:58:33;5.43;;;3.83;;
50880;SDS011;36858;47.832;-3.800;2023-02-28T08:01:07;6.93;;;3.53;;
50880;SDS011;36858;47.832;-3.800;2023-02-28T08:03:35;8.80;;;4.83;;
50880;SDS011;36858;47.832;-3.800;2023-02-28T08:06:06;8.07;;;3.97;;
50880;SDS011;36858;47.832;-3.800;2023-02-28T08:08:34;6.57;;;3.70;;
50880;SDS011;36858;47.832;-3.800;2023-02-28T08:11:02;7.13;;;3.70;;
50880;SDS011;36858;47.832;-3.800;2023-02-28T08:13:30;7.20;;;4.10;;
50880;SDS011;36858;47.832;-3.800;2023-02-28T08:15:57;7.37;;;4.30;;
50880;SDS011;36858;47.832;-3.800;2023-02-28T08:18:24;6.07;;;4.20;;
50880;SDS011;36858;47.832;-3.800;2023-02-28T08:20:51;5.60;;;3.63;;
50880;SDS011;36858;47.832;-3.800;2023-02-28T08:23:18;6.77;;;4.13;;
50880;SDS011;36858;47.832;-3.800;2023-02-28T08:25:52;7.23;;;3.73;;
50880;SDS011;36858;47.832;-3.800;2023-02-28T08:28:20;12.43;;;4.20;;
50880;SDS011;36858;47.832;-3.800;2023-02-28T08:30:47;7.07;;;4.23;;
50880;SDS011;36858;47.832;-3.800;2023-02-28T08:33:15;12.27;;;6.43;;
50880;SDS011;36858;47.832;-3.800;2023-02-28T08:35:42;6.60;;;4.43;;
50880;SDS011;36858;47.832;-3.800;2023-02-28T08:38:09;9.10;;;5.30;;
50880;SDS011;36858;47.832;-3.800;2023-02-28T08:40:36;11.03;;;6.00;;
50880;SDS011;36858;47.832;-3.800;2023-02-28T08:43:03;17.00;;;6.53;;
50880;SDS011;36858;47.832;-3.800;2023-02-28T08:45:30;9.30;;;6.30;;
50880;SDS011;36858;47.832;-3.800;2023-02-28T08:47:57;10.50;;;6.57;;
50880;SDS011;36858;47.832;-3.800;2023-02-28T08:50:24;13.67;;;6.77;;
50880;SDS011;36858;47.832;-3.800;2023-02-28T08:52:51;14.03;;;6.97;;
50880;SDS011;36858;47.832;-3.800;2023-02-28T08:55:17;14.23;;;8.00;;
50880;SDS011;36858;47.832;-3.800;2023-02-28T08:57:44;11.67;;;6.43;;
50880;SDS011;36858;47.832;-3.800;2023-02-28T09:00:11;10.47;;;6.07;;
50880;SDS011;36858;47.832;-3.800;2023-02-28T09:02:40;10.77;;;6.13;;
50880;SDS011;36858;47.832;-3.800;2023-02-28T09:05:07;8.57;;;6.43;;
50880;SDS011;36858;47.832;-3.800;2023-02-28T09:07:34;9.10;;;6.43;;
50880;SDS011;36858;47.832;-3.800;2023-02-28T09:10:01;10.40;;;6.73;;
50880;SDS011;36858;47.832;-3.800;2023-02-28T09:12:29;9.30;;;6.57;;
50880;SDS011;36858;47.832;-3.800;2023-02-28T09:14:59;9.30;;;6.53;;
50880;SDS011;36858;47.832;-3.800;2023-02-28T09:17:26;9.20;;;6.23;;
50880;SDS011;36858;47.832;-3.800;2023-02-28T09:19:56;15.27;;;6.60;;
50880;SDS011;36858;47.832;-3.800;2023-02-28T09:22:23;10.13;;;6.27;;
50880;SDS011;36858;47.832;-3.800;2023-02-28T09:24:50;7.73;;;6.30;;
50880;SDS011;36858;47.832;-3.800;2023-02-28T09:27:17;9.77;;;6.43;;
50880;SDS011;36858;47.832;-3.800;2023-02-28T09:29:44;9.87;;;6.73;;
50880;SDS011;36858;47.832;-3.800;2023-02-28T09:32:11;9.23;;;6.97;;
50880;SDS011;36858;47.832;-3.800;2023-02-28T09:34:38;9.80;;;7.20;;
50880;SDS011;36858;47.832;-3.800;2023-02-28T09:37:05;11.20;;;7.13;;
50880;SDS011;36858;47.832;-3.800;2023-02-28T09:39:32;8.27;;;6.57;;
50880;SDS011;36858;47.832;-3.800;2023-02-28T09:41:59;10.87;;;7.47;;
50880;SDS011;36858;47.832;-3.800;2023-02-28T09:46:57;7.77;;;6.90;;
50880;SDS011;36858;47.832;-3.800;2023-02-28T09:49:30;7.97;;;7.17;;
50880;SDS011;36858;47.832;-3.800;2023-02-28T09:52:06;9.23;;;7.77;;
50880;SDS011;36858;47.832;-3.800;2023-02-28T09:54:37;10.27;;;7.77;;
50880;SDS011;36858;47.832;-3.800;2023-02-28T09:57:11;8.43;;;6.90;;
50880;SDS011;36858;47.832;-3.800;2023-02-28T10:05:09;16.43;;;7.73;;
50880;SDS011;36858;47.832;-3.800;2023-02-28T10:10:27;13.17;;;7.97;;
50880;SDS011;36858;47.832;-3.800;2023-02-28T10:12:57;12.50;;;7.90;;
50880;SDS011;36858;47.832;-3.800;2023-02-28T10:15:27;12.97;;;7.90;;
50880;SDS011;36858;47.832;-3.800;2023-02-28T10:17:57;11.93;;;7.60;;
50880;SDS011;36858;47.832;-3.800;2023-02-28T10:20:35;11.50;;;7.00;;
50880;SDS011;36858;47.832;-3.800;2023-02-28T10:23:10;8.43;;;6.53;;
50880;SDS011;36858;47.832;-3.800;2023-02-28T10:25:38;12.50;;;6.90;;
50880;SDS011;36858;47.832;-3.800;2023-02-28T10:28:12;8.07;;;7.17;;
50880;SDS011;36858;47.832;-3.800;2023-02-28T10:30:42;11.13;;;6.83;;
50880;SDS011;36858;47.832;-3.800;2023-02-28T10:33:17;9.20;;;7.00;;
50880;SDS011;36858;47.832;-3.800;2023-02-28T10:35:48;17.97;;;7.50;;
50880;SDS011;36858;47.832;-3.800;2023-02-28T10:38:20;14.97;;;7.73;;
50880;SDS011;36858;47.832;-3.800;2023-02-28T10:40:48;11.97;;;6.67;;
50880;SDS011;36858;47.832;-3.800;2023-02-28T10:45:53;8.83;;;7.20;;
50880;SDS011;36858;47.832;-3.800;2023-02-28T10:50:53;14.30;;;7.00;;
50880;SDS011;36858;47.832;-3.800;2023-02-28T10:53:30;11.13;;;7.17;;
50880;SDS011;36858;47.832;-3.800;2023-02-28T10:56:27;9.67;;;6.70;;
50880;SDS011;36858;47.832;-3.800;2023-02-28T10:58:58;14.40;;;7.40;;
50880;SDS011;36858;47.832;-3.800;2023-02-28T11:07:06;7.17;;;5.57;;
50880;SDS011;36858;47.832;-3.800;2023-02-28T11:09:34;8.00;;;5.53;;
50880;SDS011;36858;47.832;-3.800;2023-02-28T11:12:03;5.47;;;4.50;;
50880;SDS011;36858;47.832;-3.800;2023-02-28T11:14:32;15.83;;;6.10;;
50880;SDS011;36858;47.832;-3.800;2023-02-28T11:20:06;7.03;;;5.43;;
50880;SDS011;36858;47.832;-3.800;2023-02-28T11:22:35;7.40;;;5.00;;
50880;SDS011;36858;47.832;-3.800;2023-02-28T11:25:09;5.77;;;4.93;;
50880;SDS011;36858;47.832;-3.800;2023-02-28T11:27:49;6.73;;;4.53;;
50880;SDS011;36858;47.832;-3.800;2023-02-28T11:32:50;7.03;;;4.50;;
50880;SDS011;36858;47.832;-3.800;2023-02-28T11:35:21;5.13;;;3.77;;
50880;SDS011;36858;47.832;-3.800;2023-02-28T11:37:51;7.33;;;3.97;;
50880;SDS011;36858;47.832;-3.800;2023-02-28T11:40:29;6.37;;;4.70;;
50880;SDS011;36858;47.832;-3.800;2023-02-28T11:43:13;7.67;;;4.93;;
50880;SDS011;36858;47.832;-3.800;2023-02-28T11:46:05;5.33;;;4.40;;
50880;SDS011;36858;47.832;-3.800;2023-02-28T11:54:29;9.53;;;4.93;;
50880;SDS011;36858;47.832;-3.800;2023-02-28T12:11:46;3.73;;;3.33;;
50880;SDS011;36858;47.832;-3.800;2023-02-28T12:28:24;5.53;;;3.47;;
50880;SDS011;36858;47.832;-3.800;2023-02-28T12:30:54;3.63;;;3.10;;
50880;SDS011;36858;47.832;-3.800;2023-02-28T12:33:26;3.73;;;3.13;;
50880;SDS011;36858;47.832;-3.800;2023-02-28T12:35:59;9.00;;;3.23;;
50880;SDS011;36858;47.832;-3.800;2023-02-28T12:41:46;2.67;;;2.30;;
50880;SDS011;36858;47.832;-3.800;2023-02-28T12:44:23;3.53;;;3.07;;
50880;SDS011;36858;47.832;-3.800;2023-02-28T12:46:54;2.97;;;2.77;;
50880;SDS011;36858;47.832;-3.800;2023-02-28T12:49:26;4.60;;;2.80;;
50880;SDS011;36858;47.832;-3.800;2023-02-28T12:51:58;3.03;;;2.60;;
50880;SDS011;36858;47.832;-3.800;2023-02-28T12:54:36;3.17;;;2.87;;
50880;SDS011;36858;47.832;-3.800;2023-02-28T12:59:46;3.30;;;3.00;;
50880;SDS011;36858;47.832;-3.800;2023-02-28T13:10:37;5.50;;;3.37;;
50880;SDS011;36858;47.832;-3.800;2023-02-28T13:13:13;4.37;;;2.93;;
50880;SDS011;36858;47.832;-3.800;2023-02-28T13:15:56;5.03;;;3.40;;
50880;SDS011;36858;47.832;-3.800;2023-02-28T13:18:30;7.73;;;3.23;;
50880;SDS011;36858;47.832;-3.800;2023-02-28T13:20:59;7.70;;;3.53;;
50880;SDS011;36858;47.832;-3.800;2023-02-28T13:26:18;2.97;;;2.50;;
50880;SDS011;36858;47.832;-3.800;2023-02-28T13:29:32;5.17;;;2.70;;
50880;SDS011;36858;47.832;-3.800;2023-02-28T13:34:38;3.90;;;2.53;;
50880;SDS011;36858;47.832;-3.800;2023-02-28T13:39:49;2.50;;;2.30;;
50880;SDS011;36858;47.832;-3.800;2023-02-28T13:42:34;5.00;;;2.50;;
50880;SDS011;36858;47.832;-3.800;2023-02-28T13:47:40;2.37;;;2.13;;
50880;SDS011;36858;47.832;-3.800;2023-02-28T13:50:14;3.07;;;2.30;;
50880;SDS011;36858;47.832;-3.800;2023-02-28T14:01:22;2.40;;;2.20;;
50880;SDS011;36858;47.832;-3.800;2023-02-28T14:06:52;2.67;;;2.07;;
50880;SDS011;36858;47.832;-3.800;2023-02-28T14:09:29;2.33;;;1.90;;
50880;SDS011;36858;47.832;-3.800;2023-02-28T14:12:18;2.60;;;1.90;;
50880;SDS011;36858;47.832;-3.800;2023-02-28T14:15:03;3.63;;;1.93;;
50880;SDS011;36858;47.832;-3.800;2023-02-28T14:17:31;3.80;;;2.20;;
50880;SDS011;36858;47.832;-3.800;2023-02-28T14:19:59;2.73;;;2.20;;
50880;SDS011;36858;47.832;-3.800;2023-02-28T14:22:38;4.00;;;2.17;;
50880;SDS011;36858;47.832;-3.800;2023-02-28T14:27:56;3.30;;;1.90;;
50880;SDS011;36858;47.832;-3.800;2023-02-28T14:36:32;2.00;;;1.77;;
50880;SDS011;36858;47.832;-3.800;2023-02-28T14:39:06;2.73;;;1.93;;
50880;SDS011;36858;47.832;-3.800;2023-02-28T14:41:38;3.90;;;1.97;;
50880;SDS011;36858;47.832;-3.800;2023-02-28T14:44:17;3.07;;;2.03;;
50880;SDS011;36858;47.832;-3.800;2023-02-28T14:46:59;2.50;;;1.90;;
50880;SDS011;36858;47.832;-3.800;2023-02-28T14:49:36;1.90;;;1.70;;
50880;SDS011;36858;47.832;-3.800;2023-02-28T14:52:14;3.43;;;2.27;;
50880;SDS011;36858;47.832;-3.800;2023-02-28T14:54:46;2.70;;;1.87;;
50880;SDS011;36858;47.832;-3.800;2023-02-28T14:57:26;3.10;;;1.87;;
50880;SDS011;36858;47.832;-3.800;2023-02-28T15:00:03;4.90;;;2.00;;
50880;SDS011;36858;47.832;-3.800;2023-02-28T15:02:39;2.77;;;1.87;;
50880;SDS011;36858;47.832;-3.800;2023-02-28T15:07:36;3.83;;;2.37;;
50880;SDS011;36858;47.832;-3.800;2023-02-28T15:10:10;4.10;;;2.10;;
50880;SDS011;36858;47.832;-3.800;2023-02-28T15:12:39;5.70;;;2.93;;
50880;SDS011;36858;47.832;-3.800;2023-02-28T15:15:16;4.53;;;2.60;;
50880;SDS011;36858;47.832;-3.800;2023-02-28T15:17:45;3.43;;;2.00;;
50880;SDS011;36858;47.832;-3.800;2023-02-28T15:20:15;5.47;;;2.00;;
50880;SDS011;36858;47.832;-3.800;2023-02-28T15:22:43;2.87;;;1.90;;
50880;SDS011;36858;47.832;-3.800;2023-02-28T15:25:17;3.40;;;2.17;;
50880;SDS011;36858;47.832;-3.800;2023-02-28T15:27:46;3.77;;;2.37;;
50880;SDS011;36858;47.832;-3.800;2023-02-28T15:33:02;4.50;;;2.60;;
50880;SDS011;36858;47.832;-3.800;2023-02-28T15:35:31;5.30;;;2.63;;
50880;SDS011;36858;47.832;-3.800;2023-02-28T15:38:03;3.07;;;2.23;;
50880;SDS011;36858;47.832;-3.800;2023-02-28T15:40:43;3.80;;;2.60;;
50880;SDS011;36858;47.832;-3.800;2023-02-28T15:48:17;6.17;;;2.53;;
50880;SDS011;36858;47.832;-3.800;2023-02-28T15:50:54;2.80;;;2.37;;
50880;SDS011;36858;47.832;-3.800;2023-02-28T15:53:24;5.27;;;2.40;;
50880;SDS011;36858;47.832;-3.800;2023-02-28T15:55:54;4.80;;;2.77;;
50880;SDS011;36858;47.832;-3.800;2023-02-28T15:58:24;3.03;;;2.33;;
50880;SDS011;36858;47.832;-3.800;2023-02-28T16:01:04;2.27;;;2.17;;
50880;SDS011;36858;47.832;-3.800;2023-02-28T16:03:47;4.53;;;2.30;;
50880;SDS011;36858;47.832;-3.800;2023-02-28T16:08:45;3.13;;;2.07;;
50880;SDS011;36858;47.832;-3.800;2023-02-28T16:11:15;3.10;;;1.90;;
50880;SDS011;36858;47.832;-3.800;2023-02-28T16:13:41;2.53;;;2.17;;
50880;SDS011;36858;47.832;-3.800;2023-02-28T16:16:14;4.63;;;2.20;;
50880;SDS011;36858;47.832;-3.800;2023-02-28T16:18:45;1.87;;;1.63;;
50880;SDS011;36858;47.832;-3.800;2023-02-28T16:21:12;2.27;;;1.90;;
50880;SDS011;36858;47.832;-3.800;2023-02-28T16:23:39;4.17;;;1.97;;
50880;SDS011;36858;47.832;-3.800;2023-02-28T16:26:06;3.33;;;2.00;;
50880;SDS011;36858;47.832;-3.800;2023-02-28T16:28:35;6.97;;;2.93;;
50880;SDS011;36858;47.832;-3.800;2023-02-28T16:31:04;8.07;;;2.90;;
50880;SDS011;36858;47.832;-3.800;2023-02-28T16:33:32;9.10;;;3.13;;
50880;SDS011;36858;47.832;-3.800;2023-02-28T16:35:59;10.43;;;3.10;;
50880;SDS011;36858;47.832;-3.800;2023-02-28T16:38:26;10.27;;;3.80;;
50880;SDS011;36858;47.832;-3.800;2023-02-28T16:40:55;14.03;;;3.37;;
50880;SDS011;36858;47.832;-3.800;2023-02-28T16:43:23;7.33;;;2.90;;
50880;SDS011;36858;47.832;-3.800;2023-02-28T16:45:55;11.93;;;3.20;;
50880;SDS011;36858;47.832;-3.800;2023-02-28T16:48:25;15.33;;;3.33;;
50880;SDS011;36858;47.832;-3.800;2023-02-28T16:50:52;9.67;;;2.57;;
50880;SDS011;36858;47.832;-3.800;2023-02-28T16:53:19;6.40;;;2.70;;
50880;SDS011;36858;47.832;-3.800;2023-02-28T16:55:46;6.97;;;3.00;;
50880;SDS011;36858;47.832;-3.800;2023-02-28T16:58:14;7.80;;;2.30;;
50880;SDS011;36858;47.832;-3.800;2023-02-28T17:00:42;5.63;;;2.57;;
50880;SDS011;36858;47.832;-3.800;2023-02-28T17:03:18;5.47;;;2.27;;
50880;SDS011;36858;47.832;-3.800;2023-02-28T17:06:00;4.93;;;1.77;;
50880;SDS011;36858;47.832;-3.800;2023-02-28T17:08:27;1.97;;;1.50;;
50880;SDS011;36858;47.832;-3.800;2023-02-28T17:10:55;2.33;;;1.00;;
50880;SDS011;36858;47.832;-3.800;2023-02-28T17:13:22;2.97;;;1.40;;
50880;SDS011;36858;47.832;-3.800;2023-02-28T17:15:50;2.70;;;1.10;;
50880;SDS011;36858;47.832;-3.800;2023-02-28T17:18:18;2.47;;;1.20;;
50880;SDS011;36858;47.832;-3.800;2023-02-28T17:20:46;3.60;;;1.33;;
50880;SDS011;36858;47.832;-3.800;2023-02-28T17:23:15;3.20;;;1.40;;
50880;SDS011;36858;47.832;-3.800;2023-02-28T17:25:42;1.67;;;0.90;;
50880;SDS011;36858;47.832;-3.800;2023-02-28T17:28:22;1.53;;;0.73;;
50880;SDS011;36858;47.832;-3.800;2023-02-28T17:30:49;2.27;;;0.97;;
50880;SDS011;36858;47.832;-3.800;2023-02-28T17:33:16;1.53;;;0.93;;
50880;SDS011;36858;47.832;-3.800;2023-02-28T17:35:43;1.87;;;0.97;;
50880;SDS011;36858;47.832;-3.800;2023-02-28T17:38:14;4.00;;;1.47;;
50880;SDS011;36858;47.832;-3.800;2023-02-28T17:40:42;3.47;;;1.50;;
50880;SDS011;36858;47.832;-3.800;2023-02-28T17:43:09;2.90;;;1.50;;
50880;SDS011;36858;47.832;-3.800;2023-02-28T17:45:36;3.80;;;1.57;;
50880;SDS011;36858;47.832;-3.800;2023-02-28T17:48:03;3.93;;;1.90;;
50880;SDS011;36858;47.832;-3.800;2023-02-28T17:50:31;9.23;;;3.23;;
50880;SDS011;36858;47.832;-3.800;2023-02-28T17:52:58;11.50;;;3.93;;
50880;SDS011;36858;47.832;-3.800;2023-02-28T17:55:25;9.50;;;3.70;;
50880;SDS011;36858;47.832;-3.800;2023-02-28T17:57:52;5.80;;;3.00;;
50880;SDS011;36858;47.832;-3.800;2023-02-28T18:00:19;7.30;;;2.67;;
50880;SDS011;36858;47.832;-3.800;2023-02-28T18:02:47;5.40;;;2.50;;
50880;SDS011;36858;47.832;-3.800;2023-02-28T18:05:14;5.50;;;2.30;;
50880;SDS011;36858;47.832;-3.800;2023-02-28T18:07:41;5.07;;;2.13;;
50880;SDS011;36858;47.832;-3.800;2023-02-28T18:10:14;4.67;;;2.67;;
50880;SDS011;36858;47.832;-3.800;2023-02-28T18:12:46;5.07;;;2.50;;
50880;SDS011;36858;47.832;-3.800;2023-02-28T18:15:14;3.70;;;2.10;;
50880;SDS011;36858;47.832;-3.800;2023-02-28T18:17:42;3.60;;;2.17;;
50880;SDS011;36858;47.832;-3.800;2023-02-28T18:20:10;6.07;;;3.03;;
50880;SDS011;36858;47.832;-3.800;2023-02-28T18:22:37;8.17;;;3.00;;
50880;SDS011;36858;47.832;-3.800;2023-02-28T18:25:05;3.43;;;2.50;;
50880;SDS011;36858;47.832;-3.800;2023-02-28T18:27:35;4.37;;;2.50;;
50880;SDS011;36858;47.832;-3.800;2023-02-28T18:30:02;4.53;;;2.67;;
50880;SDS011;36858;47.832;-3.800;2023-02-28T18:32:30;3.87;;;2.17;;
50880;SDS011;36858;47.832;-3.800;2023-02-28T18:34:57;6.23;;;2.40;;
50880;SDS011;36858;47.832;-3.800;2023-02-28T18:37:24;3.63;;;2.20;;
50880;SDS011;36858;47.832;-3.800;2023-02-28T18:39:52;5.87;;;2.00;;
50880;SDS011;36858;47.832;-3.800;2023-02-28T18:42:19;2.83;;;1.60;;
50880;SDS011;36858;47.832;-3.800;2023-02-28T18:44:46;3.83;;;1.60;;
50880;SDS011;36858;47.832;-3.800;2023-02-28T18:47:13;3.37;;;1.97;;
50880;SDS011;36858;47.832;-3.800;2023-02-28T18:49:40;3.87;;;1.93;;
50880;SDS011;36858;47.832;-3.800;2023-02-28T18:52:07;2.73;;;1.57;;
50880;SDS011;36858;47.832;-3.800;2023-02-28T18:54:34;2.37;;;1.50;;
50880;SDS011;36858;47.832;-3.800;2023-02-28T18:57:01;4.13;;;1.70;;
50880;SDS011;36858;47.832;-3.800;2023-02-28T18:59:28;3.63;;;1.80;;
50880;SDS011;36858;47.832;-3.800;2023-02-28T19:01:55;5.80;;;1.93;;
50880;SDS011;36858;47.832;-3.800;2023-02-28T19:04:23;4.27;;;2.20;;
50880;SDS011;36858;47.832;-3.800;2023-02-28T19:06:50;5.93;;;1.70;;
50880;SDS011;36858;47.832;-3.800;2023-02-28T19:09:17;3.60;;;1.90;;
50880;SDS011;36858;47.832;-3.800;2023-02-28T19:11:44;8.63;;;2.00;;
50880;SDS011;36858;47.832;-3.800;2023-02-28T19:14:11;5.70;;;1.90;;
50880;SDS011;36858;47.832;-3.800;2023-02-28T19:16:38;3.10;;;1.47;;
50880;SDS011;36858;47.832;-3.800;2023-02-28T19:19:05;4.93;;;1.73;;
50880;SDS011;36858;47.832;-3.800;2023-02-28T19:21:31;5.87;;;2.07;;
50880;SDS011;36858;47.832;-3.800;2023-02-28T19:24:02;5.33;;;1.83;;
50880;SDS011;36858;47.832;-3.800;2023-02-28T19:26:29;5.57;;;2.40;;
50880;SDS011;36858;47.832;-3.800;2023-02-28T19:28:56;2.63;;;1.83;;
50880;SDS011;36858;47.832;-3.800;2023-02-28T19:31:24;3.73;;;1.90;;
50880;SDS011;36858;47.832;-3.800;2023-02-28T19:33:51;6.50;;;2.40;;
50880;SDS011;36858;47.832;-3.800;2023-02-28T19:36:19;4.80;;;2.03;;
50880;SDS011;36858;47.832;-3.800;2023-02-28T19:38:47;6.63;;;2.90;;
50880;SDS011;36858;47.832;-3.800;2023-02-28T19:41:14;3.73;;;2.50;;
50880;SDS011;36858;47.832;-3.800;2023-02-28T19:43:42;4.60;;;3.10;;
50880;SDS011;36858;47.832;-3.800;2023-02-28T19:46:09;4.10;;;2.30;;
50880;SDS011;36858;47.832;-3.800;2023-02-28T19:48:37;5.60;;;2.40;;
50880;SDS011;36858;47.832;-3.800;2023-02-28T19:51:06;4.97;;;2.43;;
50880;SDS011;36858;47.832;-3.800;2023-02-28T19:53:35;3.27;;;2.23;;
50880;SDS011;36858;47.832;-3.800;2023-02-28T19:56:03;4.30;;;2.30;;
50880;SDS011;36858;47.832;-3.800;2023-02-28T19:58:31;2.80;;;1.63;;
50880;SDS011;36858;47.832;-3.800;2023-02-28T20:01:05;4.90;;;2.33;;
50880;SDS011;36858;47.832;-3.800;2023-02-28T20:03:45;4.80;;;2.10;;
50880;SDS011;36858;47.832;-3.800;2023-02-28T20:06:13;5.30;;;2.20;;
50880;SDS011;36858;47.832;-3.800;2023-02-28T20:08:40;3.37;;;1.73;;
50880;SDS011;36858;47.832;-3.800;2023-02-28T20:11:08;4.17;;;2.00;;
50880;SDS011;36858;47.832;-3.800;2023-02-28T20:13:37;4.33;;;2.00;;
50880;SDS011;36858;47.832;-3.800;2023-02-28T20:16:05;3.57;;;1.80;;
50880;SDS011;36858;47.832;-3.800;2023-02-28T20:18:34;3.37;;;1.73;;
50880;SDS011;36858;47.832;-3.800;2023-02-28T20:21:02;3.07;;;1.60;;
50880;SDS011;36858;47.832;-3.800;2023-02-28T20:23:29;3.97;;;2.27;;
50880;SDS011;36858;47.832;-3.800;2023-02-28T20:25:59;3.00;;;1.67;;
50880;SDS011;36858;47.832;-3.800;2023-02-28T20:28:26;4.27;;;1.67;;
50880;SDS011;36858;47.832;-3.800;2023-02-28T20:30:53;3.70;;;1.57;;
50880;SDS011;36858;47.832;-3.800;2023-02-28T20:33:21;3.63;;;1.80;;
50880;SDS011;36858;47.832;-3.800;2023-02-28T20:35:48;5.00;;;2.07;;
50880;SDS011;36858;47.832;-3.800;2023-02-28T20:38:18;6.60;;;2.40;;
50880;SDS011;36858;47.832;-3.800;2023-02-28T20:40:45;4.47;;;2.30;;
50880;SDS011;36858;47.832;-3.800;2023-02-28T20:43:12;4.57;;;2.00;;
50880;SDS011;36858;47.832;-3.800;2023-02-28T20:45:39;3.57;;;1.83;;
50880;SDS011;36858;47.832;-3.800;2023-02-28T20:48:06;2.50;;;1.50;;
50880;SDS011;36858;47.832;-3.800;2023-02-28T20:50:33;3.43;;;1.67;;
50880;SDS011;36858;47.832;-3.800;2023-02-28T20:52:59;2.67;;;1.40;;
50880;SDS011;36858;47.832;-3.800;2023-02-28T20:55:26;3.87;;;2.07;;
50880;SDS011;36858;47.832;-3.800;2023-02-28T20:57:53;3.23;;;1.40;;
50880;SDS011;36858;47.832;-3.800;2023-02-28T21:00:20;3.27;;;1.60;;
50880;SDS011;36858;47.832;-3.800;2023-02-28T21:02:48;4.10;;;1.53;;
50880;SDS011;36858;47.832;-3.800;2023-02-28T21:05:15;2.63;;;1.67;;
